createdAt,value
2017-11-28T00:01:30.643Z,57.72
2017-11-28T00:03:58.390Z,57.75
2017-11-28T00:06:25.886Z,58.14
2017-11-28T00:08:53.398Z,59.19
2017-11-28T00:11:20.937Z,59.61
2017-11-28T00:13:48.453Z,60.88
2017-11-28T00:16:15.937Z,61.66
2017-11-28T00:18:43.439Z,62.30
2017-11-28T00:21:11.312Z,62.47
2017-11-28T00:23:39.685Z,63.27
2017-11-28T00:26:07.166Z,63.82
2017-11-28T00:28:34.631Z,64.13
2017-11-28T00:31:02.181Z,64.94
2017-11-28T00:33:29.651Z,65.59
2017-11-28T00:35:57.136Z,65.73
2017-11-28T00:38:24.632Z,66.25
2017-11-28T00:40:52.111Z,67.22
2017-11-28T00:43:19.851Z,67.64
2017-11-28T00:45:47.319Z,67.90
2017-11-28T00:48:14.799Z,67.90
2017-11-28T00:50:42.287Z,68.87
2017-11-28T00:53:09.803Z,69.52
2017-11-28T00:55:37.275Z,70.08
2017-11-28T00:58:04.763Z,70.26
2017-11-28T01:00:32.559Z,68.68
2017-11-28T01:03:00.024Z,70.15
2017-11-28T01:05:27.518Z,69.33
2017-11-28T01:07:54.995Z,69.95
2017-11-28T01:10:22.536Z,69.68
2017-11-28T01:12:50.028Z,69.70
2017-11-28T01:15:17.529Z,69.49
2017-11-28T01:17:45.013Z,69.25
2017-11-28T01:20:12.494Z,69.96
2017-11-28T01:22:39.980Z,70.10
2017-11-28T01:25:07.479Z,70.90
2017-11-28T01:27:34.951Z,71.55
2017-11-28T01:30:02.765Z,73.13
2017-11-28T01:32:30.231Z,72.40
2017-11-28T01:34:57.703Z,72.84
2017-11-28T01:37:25.220Z,72.75
2017-11-28T01:39:52.699Z,74.06
2017-11-28T01:42:20.187Z,74.59
2017-11-28T01:44:47.664Z,75.50
2017-11-28T01:47:15.296Z,74.37
2017-11-28T01:49:42.799Z,72.39
2017-11-28T01:52:10.302Z,72.08
2017-11-28T01:54:38.039Z,71.83
2017-11-28T01:57:05.511Z,70.93
2017-11-28T01:59:32.980Z,71.99
2017-11-28T02:02:00.698Z,72.02
2017-11-28T02:04:28.187Z,72.80
2017-11-28T02:06:55.683Z,74.00
2017-11-28T02:09:23.396Z,74.08
2017-11-28T02:11:50.891Z,74.16
2017-11-28T02:14:18.423Z,74.45
2017-11-28T02:16:45.890Z,73.35
2017-11-28T02:19:13.367Z,73.74
2017-11-28T02:21:40.865Z,73.42
2017-11-28T02:24:08.383Z,73.95
2017-11-28T02:26:35.888Z,73.41
2017-11-28T02:29:03.456Z,74.35
2017-11-28T02:31:30.933Z,74.89
2017-11-28T02:33:58.418Z,74.75
2017-11-28T02:36:25.910Z,74.83
2017-11-28T02:38:53.388Z,74.96
2017-11-28T02:41:20.856Z,75.78
2017-11-28T02:44:06.106Z,76.11
2017-11-28T02:46:33.595Z,76.27
2017-11-28T02:52:07.222Z,76.95
2017-11-28T02:54:34.704Z,77.17
2017-11-28T02:57:02.163Z,77.00
2017-11-28T02:59:29.626Z,76.85
2017-11-28T03:01:59.009Z,76.77
2017-11-28T03:04:26.475Z,76.90
2017-11-28T03:06:53.975Z,77.27
2017-11-28T03:09:37.042Z,77.02
2017-11-28T03:12:09.966Z,77.31
2017-11-28T03:14:41.919Z,76.84
2017-11-28T03:17:10.206Z,76.67
2017-11-28T03:19:49.530Z,77.41
2017-11-28T03:22:33.669Z,77.77
2017-11-28T03:25:33.598Z,77.78
2017-11-28T03:31:05.572Z,79.08
2017-11-28T03:33:33.137Z,79.31
2017-11-28T03:36:00.593Z,78.56
2017-11-28T03:38:28.050Z,78.51
2017-11-28T03:40:55.521Z,78.27
2017-11-28T03:43:22.987Z,78.07
2017-11-28T03:46:02.235Z,79.25
2017-11-28T03:48:30.547Z,79.56
2017-11-28T03:50:58.014Z,77.97
2017-11-28T03:53:25.490Z,77.71
2017-11-28T03:55:52.950Z,78.26
2017-11-28T03:58:20.432Z,78.50
2017-11-28T04:00:47.894Z,77.04
2017-11-28T04:03:15.345Z,77.05
2017-11-28T04:05:42.817Z,77.15
2017-11-28T04:08:10.274Z,77.48
2017-11-28T04:10:37.753Z,76.75
2017-11-28T04:13:05.209Z,77.38
2017-11-28T04:15:32.671Z,77.92
2017-11-28T04:18:00.150Z,78.06
2017-11-28T04:20:27.602Z,77.59
2017-11-28T04:22:55.066Z,77.92
2017-11-28T04:25:22.541Z,78.81
2017-11-28T04:27:50.003Z,77.99
2017-11-28T04:30:17.463Z,77.36
2017-11-28T04:32:44.938Z,77.49
2017-11-28T04:35:12.404Z,77.77
2017-11-28T04:37:39.861Z,77.57
2017-11-28T04:40:07.335Z,77.41
2017-11-28T04:42:34.832Z,77.90
2017-11-28T04:45:02.295Z,77.87
2017-11-28T04:47:29.770Z,78.41
2017-11-28T04:49:57.230Z,78.11
2017-11-28T04:52:24.706Z,78.16
2017-11-28T04:54:52.172Z,78.43
2017-11-28T04:57:19.639Z,79.14
2017-11-28T04:59:47.113Z,78.75
2017-11-28T05:02:14.582Z,77.90
2017-11-28T05:04:42.060Z,77.80
2017-11-28T05:07:09.527Z,77.72
2017-11-28T05:09:36.990Z,77.61
2017-11-28T05:12:04.467Z,77.95
2017-11-28T05:14:31.934Z,77.84
2017-11-28T05:16:59.400Z,78.14
2017-11-28T05:19:26.902Z,78.13
2017-11-28T05:21:54.363Z,78.14
2017-11-28T05:24:21.826Z,78.12
2017-11-28T05:26:49.300Z,78.43
2017-11-28T05:29:16.758Z,78.33
2017-11-28T05:31:44.218Z,78.21
2017-11-28T05:34:11.708Z,78.33
2017-11-28T05:36:39.162Z,78.58
2017-11-28T05:39:06.735Z,78.11
2017-11-28T05:41:34.224Z,78.01
2017-11-28T05:44:01.743Z,77.91
2017-11-28T05:46:29.223Z,77.58
2017-11-28T05:48:56.713Z,77.13
2017-11-28T05:51:25.090Z,77.08
2017-11-28T05:53:52.550Z,76.74
2017-11-28T05:56:20.023Z,76.78
2017-11-28T05:58:47.490Z,76.61
2017-11-28T06:01:14.974Z,76.21
2017-11-28T06:03:42.442Z,76.42
2017-11-28T06:06:09.903Z,76.27
2017-11-28T06:08:38.142Z,75.53
2017-11-28T06:11:07.431Z,74.19
2017-11-28T06:13:34.886Z,72.77
2017-11-28T06:16:02.363Z,71.27
2017-11-28T06:18:29.878Z,69.63
2017-11-28T06:20:57.333Z,69.19
2017-11-28T06:23:24.807Z,68.18
2017-11-28T06:25:52.270Z,68.31
2017-11-28T06:28:19.726Z,68.97
2017-11-28T06:30:47.204Z,68.10
2017-11-28T06:33:14.666Z,67.50
2017-11-28T06:35:42.123Z,66.99
2017-11-28T06:38:09.599Z,66.93
2017-11-28T06:40:37.062Z,67.23
2017-11-28T06:43:04.523Z,67.34
2017-11-28T06:45:32.006Z,67.43
2017-11-28T06:47:59.541Z,67.02
2017-11-28T06:50:27.000Z,67.00
2017-11-28T06:52:54.473Z,67.00
2017-11-28T06:55:21.936Z,67.44
2017-11-28T06:57:49.406Z,66.84
2017-11-28T07:00:16.883Z,67.31
2017-11-28T07:02:45.146Z,66.78
2017-11-28T07:05:12.602Z,67.27
2017-11-28T07:07:40.084Z,67.77
2017-11-28T07:10:07.586Z,67.35
2017-11-28T07:12:35.046Z,67.45
2017-11-28T07:15:02.531Z,66.87
2017-11-28T07:17:29.997Z,67.09
2017-11-28T07:19:57.458Z,66.44
2017-11-28T07:22:25.245Z,66.34
2017-11-28T07:24:52.702Z,66.74
2017-11-28T07:27:20.162Z,66.38
2017-11-28T07:29:47.651Z,65.96
2017-11-28T07:32:15.121Z,65.47
2017-11-28T07:34:42.598Z,65.27
2017-11-28T07:37:10.058Z,65.13
2017-11-28T07:39:37.530Z,64.39
2017-11-28T07:42:04.991Z,64.31
2017-11-28T07:44:32.473Z,64.09
2017-11-28T07:46:59.934Z,64.06
2017-11-28T07:49:27.395Z,63.67
2017-11-28T07:51:54.875Z,64.64
2017-11-28T07:54:22.333Z,63.55
2017-11-28T07:56:49.819Z,63.65
2017-11-28T07:59:17.296Z,63.35
2017-11-28T08:01:44.769Z,63.23
2017-11-28T08:04:12.227Z,63.21
2017-11-28T08:06:39.712Z,62.81
2017-11-28T08:09:07.170Z,62.37
2017-11-28T08:11:34.626Z,61.77
2017-11-28T08:14:02.111Z,61.18
2017-11-28T08:16:29.566Z,61.38
2017-11-28T08:18:57.047Z,60.84
2017-11-28T08:21:24.503Z,60.42
2017-11-28T08:23:52.002Z,60.04
2017-11-28T08:26:19.457Z,59.58
2017-11-28T08:28:46.942Z,59.99
2017-11-28T08:31:14.415Z,58.92
2017-11-28T08:33:41.891Z,57.78
2017-11-28T08:36:09.346Z,55.65
2017-11-28T08:38:36.825Z,55.57
2017-11-28T08:41:04.303Z,55.23
2017-11-28T08:43:31.782Z,57.06
2017-11-28T08:45:59.245Z,55.75
2017-11-28T08:48:26.718Z,56.75
2017-11-28T08:50:54.173Z,56.47
2017-11-28T08:53:21.630Z,56.37
2017-11-28T08:55:49.106Z,57.28
2017-11-28T08:58:16.569Z,57.56
2017-11-28T09:00:44.030Z,56.80
2017-11-28T09:03:11.506Z,56.77
2017-11-28T09:05:38.963Z,55.61
2017-11-28T09:08:06.443Z,55.15
2017-11-28T09:10:33.901Z,55.99
2017-11-28T09:13:01.363Z,55.68
2017-11-28T09:15:28.842Z,56.60
2017-11-28T09:17:56.298Z,56.69
2017-11-28T09:20:23.750Z,55.94
2017-11-28T09:22:51.226Z,56.22
2017-11-28T09:25:18.687Z,56.92
2017-11-28T09:27:46.160Z,56.28
2017-11-28T09:30:13.641Z,57.07
2017-11-28T09:32:41.107Z,56.85
2017-11-28T09:35:08.587Z,57.00
2017-11-28T09:37:36.042Z,57.20
2017-11-28T09:40:03.505Z,55.34
2017-11-28T09:42:30.978Z,53.27
2017-11-28T09:44:58.435Z,53.65
2017-11-28T09:47:25.899Z,53.61
2017-11-28T09:49:53.379Z,54.02
2017-11-28T09:52:20.837Z,54.09
2017-11-28T09:54:48.298Z,53.60
2017-11-28T09:57:15.770Z,54.94
2017-11-28T09:59:43.229Z,54.10
2017-11-28T10:02:10.706Z,54.39
2017-11-28T10:04:38.172Z,52.95
2017-11-28T10:07:05.646Z,53.64
2017-11-28T10:09:33.139Z,53.22
2017-11-28T10:12:00.610Z,53.64
2017-11-28T10:14:28.075Z,54.05
2017-11-28T10:16:55.550Z,54.07
2017-11-28T10:19:23.121Z,54.08
2017-11-28T10:21:50.598Z,54.28
2017-11-28T10:24:18.062Z,55.03
2017-11-28T10:26:45.518Z,55.35
2017-11-28T10:29:12.995Z,54.81
2017-11-28T10:31:40.454Z,54.69
2017-11-28T10:34:07.910Z,54.16
2017-11-28T10:36:35.391Z,54.44
2017-11-28T10:39:02.850Z,55.02
2017-11-28T10:41:30.306Z,54.33
2017-11-28T10:43:57.786Z,55.08
2017-11-28T10:46:25.246Z,55.02
2017-11-28T10:48:52.702Z,55.62
2017-11-28T10:51:20.174Z,54.45
2017-11-28T10:53:47.635Z,54.64
2017-11-28T10:56:15.098Z,54.70
2017-11-28T10:58:42.586Z,54.47
2017-11-28T11:01:10.097Z,54.71
2017-11-28T11:03:37.559Z,54.55
2017-11-28T11:06:05.038Z,53.75
2017-11-28T11:08:32.502Z,53.89
2017-11-28T11:10:59.974Z,53.41
2017-11-28T11:13:27.450Z,53.19
2017-11-28T11:15:54.914Z,53.15
2017-11-28T11:18:22.370Z,52.70
2017-11-28T11:20:49.857Z,52.06
2017-11-28T11:23:17.319Z,51.95
2017-11-28T11:25:44.789Z,50.78
2017-11-28T11:28:12.285Z,52.25
2017-11-28T11:30:39.751Z,52.63
2017-11-28T11:33:07.238Z,53.57
2017-11-28T11:35:34.723Z,53.90
2017-11-28T11:38:02.195Z,53.09
2017-11-28T11:40:29.718Z,53.48
2017-11-28T11:42:57.182Z,56.07
2017-11-28T11:45:24.664Z,57.21
2017-11-28T11:47:52.118Z,58.39
2017-11-28T11:50:19.587Z,58.57
2017-11-28T11:52:47.068Z,59.07
2017-11-28T11:55:14.524Z,59.24
2017-11-28T11:57:42.029Z,58.75
2017-11-28T12:00:09.513Z,59.26
2017-11-28T12:02:36.975Z,58.98
2017-11-28T12:05:04.455Z,59.36
2017-11-28T12:07:31.938Z,59.30
2017-11-28T12:09:59.406Z,59.79
2017-11-28T12:12:26.874Z,59.35
2017-11-28T12:14:54.346Z,60.00
2017-11-28T12:17:21.862Z,60.02
2017-11-28T12:19:49.323Z,60.19
2017-11-28T12:22:16.903Z,59.81
2017-11-28T12:24:44.361Z,60.21
2017-11-28T12:27:11.826Z,59.97
2017-11-28T12:29:39.297Z,60.36
2017-11-28T12:32:06.754Z,60.42
2017-11-28T12:34:34.228Z,60.46
2017-11-28T12:37:01.686Z,59.97
2017-11-28T12:39:29.163Z,60.18
2017-11-28T12:41:56.638Z,60.16
2017-11-28T12:44:24.110Z,60.20
2017-11-28T12:46:51.571Z,60.19
2017-11-28T12:49:19.055Z,60.00
2017-11-28T12:51:46.560Z,60.18
2017-11-28T12:54:14.103Z,59.86
2017-11-28T12:56:41.563Z,60.28
2017-11-28T12:59:09.046Z,59.99
2017-11-28T13:01:36.506Z,60.08
2017-11-28T13:04:03.990Z,59.83
2017-11-28T13:06:31.454Z,59.65
2017-11-28T13:08:58.930Z,59.67
2017-11-28T13:11:26.391Z,59.32
2017-11-28T13:13:53.869Z,59.45
2017-11-28T13:16:21.327Z,59.92
2017-11-28T13:18:48.815Z,59.56
2017-11-28T13:21:16.270Z,59.29
2017-11-28T13:23:43.756Z,60.10
2017-11-28T13:26:11.218Z,59.20
2017-11-28T13:28:38.693Z,59.26
2017-11-28T13:31:06.147Z,58.71
2017-11-28T13:33:33.622Z,58.93
2017-11-28T13:36:01.129Z,58.70
2017-11-28T13:38:28.601Z,59.29
2017-11-28T13:40:56.073Z,59.24
2017-11-28T13:43:23.551Z,59.07
2017-11-28T13:45:51.029Z,59.26
2017-11-28T13:48:18.502Z,59.54
2017-11-28T13:50:45.958Z,59.45
2017-11-28T13:53:13.429Z,59.47
2017-11-28T13:55:40.993Z,59.91
2017-11-28T13:58:08.474Z,60.10
2017-11-28T14:00:35.943Z,59.98
2017-11-28T14:03:03.414Z,60.18
2017-11-28T14:05:30.874Z,59.50
2017-11-28T14:07:58.355Z,59.93
2017-11-28T14:10:25.810Z,60.17
2017-11-28T14:12:53.291Z,60.21
2017-11-28T14:15:20.755Z,60.72
2017-11-28T14:17:48.309Z,60.84
2017-11-28T14:20:15.765Z,60.68
2017-11-28T14:22:53.154Z,60.36
2017-11-28T14:28:26.154Z,60.81
2017-11-28T14:30:59.295Z,60.76
2017-11-28T14:33:26.778Z,61.05
2017-11-28T14:39:01.279Z,61.89
2017-11-28T14:41:30.662Z,61.92
2017-11-28T14:44:13.896Z,61.92
2017-11-28T14:46:41.366Z,62.75
2017-11-28T14:49:08.866Z,62.68
2017-11-28T14:54:46.886Z,63.95
2017-11-28T14:57:19.902Z,64.04
2017-11-28T14:59:52.917Z,64.56
2017-11-28T15:02:25.902Z,64.95
2017-11-28T15:04:58.870Z,65.44
2017-11-28T15:10:33.758Z,65.56
2017-11-28T15:13:06.941Z,66.03
2017-11-28T15:18:40.399Z,66.09
2017-11-28T15:21:07.874Z,66.38
2017-11-28T15:23:49.199Z,66.52
2017-11-28T15:29:30.094Z,66.25
2017-11-28T15:31:57.560Z,65.79
2017-11-28T15:34:25.056Z,65.86
2017-11-28T15:36:52.518Z,65.36
2017-11-28T15:39:19.991Z,65.38
2017-11-28T15:41:47.455Z,65.82
2017-11-28T15:44:14.931Z,65.93
2017-11-28T15:46:42.391Z,66.58
2017-11-28T15:49:09.866Z,67.03
2017-11-28T15:51:37.322Z,67.15
2017-11-28T15:54:04.807Z,66.81
2017-11-28T15:56:32.286Z,67.13
2017-11-28T15:58:59.766Z,66.75
2017-11-28T16:01:27.230Z,67.36
2017-11-28T16:03:54.706Z,67.72
2017-11-28T16:06:22.162Z,66.62
2017-11-28T16:08:49.646Z,67.23
2017-11-28T16:11:17.108Z,67.29
2017-11-28T16:13:44.582Z,67.49
2017-11-28T16:16:12.056Z,67.46
2017-11-28T16:18:39.526Z,67.60
2017-11-28T16:21:07.026Z,68.62
2017-11-28T16:23:34.487Z,68.41
2017-11-28T16:26:01.977Z,68.46
2017-11-28T16:28:29.447Z,68.40
2017-11-28T16:30:56.927Z,68.37
2017-11-28T16:33:24.390Z,68.56
2017-11-28T16:35:51.862Z,68.81
2017-11-28T16:38:19.322Z,68.08
2017-11-28T16:40:46.803Z,68.00
2017-11-28T16:43:14.258Z,68.08
2017-11-28T16:45:41.739Z,68.12
2017-11-28T16:48:09.198Z,67.67
2017-11-28T16:50:36.675Z,67.50
2017-11-28T16:53:04.135Z,67.98
2017-11-28T16:55:31.680Z,67.74
2017-11-28T16:57:59.134Z,67.60
2017-11-28T17:00:26.610Z,67.66
2017-11-28T17:02:54.074Z,67.95
2017-11-28T17:05:21.550Z,67.99
2017-11-28T17:07:49.015Z,67.93
2017-11-28T17:10:16.497Z,68.04
2017-11-28T17:12:43.980Z,67.87
2017-11-28T17:15:11.458Z,67.81
2017-11-28T17:17:38.943Z,67.97
2017-11-28T17:20:06.430Z,68.03
2017-11-28T17:22:33.890Z,67.76
2017-11-28T17:25:01.387Z,68.02
2017-11-28T17:27:28.842Z,68.15
2017-11-28T17:29:56.338Z,68.31
2017-11-28T17:32:23.793Z,68.28
2017-11-28T17:34:51.270Z,68.48
2017-11-28T17:37:18.726Z,67.54
2017-11-28T17:39:46.229Z,68.12
2017-11-28T17:42:13.732Z,68.21
2017-11-28T17:44:41.267Z,67.98
2017-11-28T17:47:08.726Z,67.83
2017-11-28T17:49:36.207Z,67.92
2017-11-28T17:52:03.666Z,68.08
2017-11-28T17:54:31.144Z,67.63
2017-11-28T17:56:58.609Z,67.43
2017-11-28T17:59:26.108Z,66.63
2017-11-28T18:01:53.571Z,66.96
2017-11-28T18:04:21.046Z,66.67
2017-11-28T18:06:48.501Z,66.68
2017-11-28T18:09:15.978Z,66.34
2017-11-28T18:11:43.434Z,66.17
2017-11-28T18:14:10.910Z,66.69
2017-11-28T18:16:38.385Z,66.43
2017-11-28T18:19:05.890Z,66.23
2017-11-28T18:21:33.378Z,66.33
2017-11-28T18:24:00.838Z,66.63
2017-11-28T18:26:28.315Z,66.42
2017-11-28T18:28:55.790Z,66.70
2017-11-28T18:31:23.272Z,66.71
2017-11-28T18:33:50.735Z,66.88
2017-11-28T18:36:18.211Z,66.61
2017-11-28T18:38:45.670Z,66.99
2017-11-28T18:41:13.145Z,67.02
2017-11-28T18:43:40.625Z,66.68
2017-11-28T18:46:08.088Z,66.72
2017-11-28T18:48:35.563Z,67.27
2017-11-28T18:51:03.027Z,67.65
2017-11-28T18:53:30.510Z,67.25
2017-11-28T18:55:57.971Z,67.41
2017-11-28T18:58:25.451Z,67.62
2017-11-28T19:00:52.914Z,67.79
2017-11-28T19:03:20.390Z,67.97
2017-11-28T19:05:47.924Z,67.56
2017-11-28T19:08:15.518Z,67.58
2017-11-28T19:10:42.983Z,67.60
2017-11-28T19:13:10.481Z,67.48
2017-11-28T19:15:37.951Z,67.15
2017-11-28T19:18:05.436Z,67.18
2017-11-28T19:20:32.910Z,67.30
2017-11-28T19:23:00.414Z,66.90
2017-11-28T19:25:27.888Z,67.01
2017-11-28T19:27:58.577Z,66.98
2017-11-28T19:30:29.440Z,66.94
2017-11-28T19:33:00.128Z,67.00
2017-11-28T19:35:30.964Z,67.28
2017-11-28T19:38:01.597Z,66.94
2017-11-28T19:40:32.379Z,67.28
2017-11-28T19:43:04.042Z,67.22
2017-11-28T19:45:34.940Z,67.34
2017-11-28T19:48:05.686Z,67.49
2017-11-28T19:50:36.343Z,67.66
2017-11-28T19:53:07.299Z,67.57
2017-11-28T19:55:37.832Z,67.62
2017-11-28T19:58:08.582Z,67.76
2017-11-28T20:00:39.592Z,67.96
2017-11-28T20:03:10.293Z,68.02
2017-11-28T20:05:41.114Z,68.30
2017-11-28T20:08:12.025Z,68.26
2017-11-28T20:10:42.865Z,68.19
2017-11-28T20:13:13.880Z,68.05
2017-11-28T20:15:44.593Z,68.04
2017-11-28T20:18:15.269Z,68.71
2017-11-28T20:20:46.388Z,69.10
2017-11-28T20:23:17.358Z,68.84
2017-11-28T20:25:49.090Z,67.88
2017-11-28T20:28:19.887Z,69.22
2017-11-28T20:30:50.787Z,68.75
2017-11-28T20:33:21.536Z,70.25
2017-11-28T20:35:52.164Z,69.64
2017-11-28T20:38:23.093Z,69.49
2017-11-28T20:40:53.687Z,69.78
2017-11-28T20:43:24.360Z,70.09
2017-11-28T20:45:54.838Z,68.64
2017-11-28T20:48:25.770Z,69.67
2017-11-28T20:50:56.292Z,69.35
2017-11-28T20:53:26.955Z,69.02
2017-11-28T20:55:57.497Z,69.26
2017-11-28T20:58:27.572Z,68.02
2017-11-28T21:00:56.881Z,68.72
2017-11-28T21:03:24.630Z,69.10
2017-11-28T21:05:52.112Z,68.32
2017-11-28T21:08:19.598Z,65.43
2017-11-28T21:10:47.118Z,65.17
2017-11-28T21:13:14.554Z,64.52
2017-11-28T21:15:42.020Z,65.08
2017-11-28T21:18:09.526Z,64.63
2017-11-28T21:20:36.994Z,64.61
2017-11-28T21:23:04.470Z,64.73
2017-11-28T21:25:31.927Z,65.36
2017-11-28T21:27:59.401Z,65.13
2017-11-28T21:30:26.870Z,65.22
2017-11-28T21:32:54.366Z,65.09
2017-11-28T21:35:21.831Z,65.33
2017-11-28T21:37:49.310Z,65.41
2017-11-28T21:40:16.777Z,65.25
2017-11-28T21:42:44.258Z,65.26
2017-11-28T21:45:11.720Z,65.78
2017-11-28T21:47:39.177Z,65.81
2017-11-28T21:50:06.655Z,66.00
2017-11-28T21:52:34.122Z,65.70
2017-11-28T21:55:01.604Z,66.04
2017-11-28T21:57:29.066Z,66.17
2017-11-28T21:59:56.562Z,65.93
2017-11-28T22:02:24.027Z,66.41
2017-11-28T22:04:51.506Z,66.12
2017-11-28T22:07:19.002Z,66.11
2017-11-28T22:09:46.495Z,65.90
2017-11-28T22:12:13.954Z,66.17
2017-11-28T22:14:41.438Z,66.09
2017-11-28T22:17:08.899Z,67.28
2017-11-28T22:19:36.374Z,67.83
2017-11-28T22:22:03.860Z,68.52
2017-11-28T22:24:31.341Z,68.74
2017-11-28T22:26:58.806Z,70.13
2017-11-28T22:29:26.300Z,71.05
2017-11-28T22:31:53.760Z,71.88
2017-11-28T22:34:21.234Z,73.35
2017-11-28T22:36:48.691Z,74.06
2017-11-28T22:39:16.166Z,75.20
2017-11-28T22:41:43.621Z,75.17
2017-11-28T22:44:11.102Z,75.07
2017-11-28T22:46:38.600Z,74.46
2017-11-28T22:49:06.098Z,73.79
2017-11-28T22:51:33.559Z,75.24
2017-11-28T22:54:01.046Z,75.95
2017-11-28T22:56:28.505Z,76.22
2017-11-28T22:58:55.994Z,76.27
2017-11-28T23:01:23.450Z,77.14
2017-11-28T23:03:50.921Z,77.54
2017-11-28T23:06:18.378Z,78.08
2017-11-28T23:08:45.867Z,78.21
2017-11-28T23:11:13.326Z,78.27
2017-11-28T23:13:52.699Z,79.18
2017-11-28T23:16:20.168Z,78.66
2017-11-28T23:18:47.648Z,78.93
2017-11-28T23:21:15.123Z,79.08
2017-11-28T23:23:42.598Z,79.46
2017-11-28T23:26:10.069Z,79.16
2017-11-28T23:28:37.556Z,79.42
2017-11-28T23:31:05.019Z,78.91
2017-11-28T23:33:32.507Z,79.50
2017-11-28T23:36:00.007Z,78.58
2017-11-28T23:38:27.469Z,78.76
2017-11-28T23:40:54.960Z,77.88
2017-11-28T23:43:22.419Z,78.16
2017-11-28T23:45:49.903Z,78.42
2017-11-28T23:48:17.375Z,78.45
2017-11-28T23:50:44.862Z,78.01
2017-11-28T23:53:12.332Z,78.66
2017-11-28T23:55:39.822Z,78.25
2017-11-28T23:58:07.278Z,78.40
